Time;durP1;ratioP1;P1;durP2;ratioP2;P2;SDS_P1;SDS_P2;PMS_P1;PMS_P2;Temp;Humidity;BMP_temperature;BMP_pressure;BME280_temperature;BME280_humidity;BME280_pressure;Samples;Min_cycle;Max_cycle;Signal;HPM_P1;HPM_P2
2023/04/30 00:03:53;;;;;;;10.47;8.27;;;;;;;12.93;72.80;99541.78;7399898;39;20262;31
2023/04/30 00:09:13;;;;;;;9.30;8.25;;;;;;;12.90;72.41;99540.22;7399855;39;20259;31
2023/04/30 00:15:01;;;;;;;8.87;7.97;;;;;;;12.96;72.82;99546.81;7382519;39;20244;31
2023/04/30 00:25:23;;;;;;;9.70;7.70;;;;;;;12.94;72.14;99544.31;7420917;39;21126;31
2023/04/30 00:30:53;;;;;;;10.57;7.73;;;;;;;12.89;72.22;99533.16;7420718;39;20284;31
2023/04/30 00:41:29;;;;;;;8.60;7.60;;;;;;;12.89;72.35;99535.00;7460787;39;21210;31
2023/04/30 00:47:00;;;;;;;9.67;8.17;;;;;;;12.89;72.25;99535.00;7397598;39;20275;31
2023/04/30 00:52:32;;;;;;;10.67;8.60;;;;;;;12.86;72.39;99533.47;7391490;39;20266;31
2023/04/30 00:58:04;;;;;;;9.43;8.43;;;;;;;12.82;72.50;99534.84;7419602;39;20246;31
2023/04/30 01:03:38;;;;;;;9.25;8.20;;;;;;;12.78;71.67;99524.53;7441398;39;21096;31
2023/04/30 01:09:10;;;;;;;9.27;8.13;;;;;;;12.77;72.39;99525.59;7440053;39;20325;31
2023/04/30 01:14:38;;;;;;;10.00;8.70;;;;;;;12.73;72.53;99513.41;7439540;39;20254;31
2023/04/30 01:20:11;;;;;;;10.17;9.07;;;;;;;12.71;72.80;99520.84;7441774;39;20285;31
2023/04/30 01:25:49;;;;;;;9.37;8.47;;;;;;;12.71;72.35;99516.28;7442851;39;21176;31
2023/04/30 01:31:30;;;;;;;9.13;8.23;;;;;;;12.66;72.12;99515.97;7417789;39;20369;31
2023/04/30 01:37:07;;;;;;;10.27;9.03;;;;;;;12.64;72.55;99526.09;7438698;39;20258;31
2023/04/30 01:42:42;;;;;;;10.00;8.77;;;;;;;12.61;72.29;99527.28;7440413;39;20241;31
2023/04/30 01:48:18;;;;;;;11.10;9.07;;;;;;;12.59;72.73;99523.91;7377781;39;20245;31
2023/04/30 01:53:48;;;;;;;9.97;8.70;;;;;;;12.60;72.89;99527.44;7376764;39;20413;31
2023/04/30 01:59:23;;;;;;;10.40;9.03;;;;;;;12.59;73.23;99523.91;7336442;39;20244;31
2023/04/30 02:04:56;;;;;;;12.27;9.10;;;;;;;12.58;73.20;99522.22;7338381;39;20345;31
2023/04/30 02:10:29;;;;;;;10.87;9.77;;;;;;;12.55;72.87;99527.13;7345449;39;20314;31
2023/04/30 02:15:45;;;;;;;11.70;9.10;;;;;;;12.54;72.99;99522.75;7407013;39;20967;31
2023/04/30 02:21:15;;;;;;;10.30;9.30;;;;;;;12.49;72.78;99525.97;7180455;39;20339;31
2023/04/30 02:26:47;;;;;;;12.10;10.80;;;;;;;12.45;72.69;99529.19;7330512;39;20247;31
2023/04/30 02:32:05;;;;;;;13.25;10.30;;;;;;;12.42;73.30;99524.94;7400655;39;20399;31
2023/04/30 02:42:42;;;;;;;12.87;10.30;;;;;;;12.42;73.60;99529.50;7360598;39;21190;31
2023/04/30 02:53:04;;;;;;;12.33;9.83;;;;;;;12.40;73.87;99526.97;7444408;39;21123;31
2023/04/30 02:58:35;;;;;;;12.07;10.77;;;;;;;12.36;73.79;99524.78;7459515;39;20268;31
2023/04/30 03:09:11;;;;;;;12.60;10.95;;;;;;;12.36;73.64;99532.91;7397944;39;21233;31
2023/04/30 03:19:51;;;;;;;14.25;10.45;;;;;;;12.26;74.42;99533.06;7416107;39;21393;31
2023/04/30 03:25:24;;;;;;;13.43;11.10;;;;;;;12.30;74.09;99522.75;7382939;39;20235;31
2023/04/30 03:30:45;;;;;;;13.17;10.37;;;;;;;12.29;73.81;99521.91;7380970;39;20240;31
2023/04/30 03:36:18;;;;;;;12.00;10.37;;;;;;;12.28;73.76;99516.69;7377485;39;20239;31
2023/04/30 03:41:53;;;;;;;11.27;9.80;;;;;;;12.27;74.02;99507.72;7304767;39;20292;31
2023/04/30 03:47:14;;;;;;;11.67;9.80;;;;;;;12.24;74.43;99502.69;7296191;39;20331;31
2023/04/30 03:57:53;;;;;;;11.20;10.10;;;;;;;12.19;74.54;99505.87;7357342;39;20274;31
2023/04/30 04:03:24;;;;;;;11.00;9.80;;;;;;;12.16;74.10;99502.66;7425187;39;20238;31
2023/04/30 04:08:45;;;;;;;11.10;10.00;;;;;;;12.25;74.47;99509.75;7397865;39;20315;31
2023/04/30 04:14:18;;;;;;;19.30;10.80;;;;;;;12.23;74.30;99508.25;7379582;39;21685;31
2023/04/30 04:19:35;;;;;;;10.80;9.63;;;;;;;12.21;74.25;99508.41;7407184;39;20254;31
2023/04/30 04:24:55;;;;;;;11.80;10.60;;;;;;;12.24;74.26;99510.78;7406939;39;20282;31
2023/04/30 04:30:32;;;;;;;12.10;10.80;;;;;;;12.15;74.66;99522.59;7419007;39;20258;31
2023/04/30 04:36:05;;;;;;;12.60;10.50;;;;;;;12.09;74.96;99525.97;7430145;38;20324;31
2023/04/30 04:41:23;;;;;;;15.05;11.20;;;;;;;12.09;74.74;99526.81;7468988;39;20670;31
2023/04/30 04:46:57;;;;;;;13.23;11.03;;;;;;;12.09;74.78;99534.06;7444655;39;21810;31
2023/04/30 04:52:14;;;;;;;12.90;11.10;;;;;;;12.07;75.00;99528.84;7488454;39;21199;31
2023/04/30 04:57:46;;;;;;;13.67;10.93;;;;;;;12.02;75.40;99530.38;7487453;39;21273;31
2023/04/30 05:03:21;;;;;;;17.34;11.62;;;;;;;12.06;75.77;99537.13;7419426;39;20293;31
2023/04/30 05:08:38;;;;;;;13.24;11.26;;;;;;;12.14;75.50;99539.81;7460402;39;20320;31
2023/04/30 05:13:57;;;;;;;12.27;10.43;;;;;;;12.13;75.99;99532.72;7418468;39;20246;31
2023/04/30 05:19:32;;;;;;;16.10;10.60;;;;;;;12.16;75.37;99535.06;7428047;39;21222;31
2023/04/30 05:24:52;;;;;;;13.40;10.65;;;;;;;12.25;75.38;99542.19;7438306;39;20272;31
2023/04/30 05:35:34;;;;;;;12.20;10.90;;;;;;;12.27;75.91;99540.16;7440252;39;20284;31
2023/04/30 05:40:51;;;;;;;11.57;10.37;;;;;;;12.27;75.62;99533.91;7397503;39;20242;31
2023/04/30 05:46:07;;;;;;;16.10;11.57;;;;;;;12.23;75.94;99538.81;7402419;39;20234;31
2023/04/30 05:51:44;;;;;;;12.40;11.10;;;;;;;12.26;76.37;99543.87;7440944;39;20280;31
2023/04/30 05:57:01;;;;;;;12.57;11.17;;;;;;;12.40;76.02;99540.50;7397746;39;20270;31
2023/04/30 06:02:21;;;;;;;12.50;11.20;;;;;;;12.46;75.37;99537.09;7434175;39;20253;31
2023/04/30 06:07:54;;;;;;;13.03;10.80;;;;;;;12.46;76.19;99534.41;7396569;39;20274;31
2023/04/30 06:13:29;;;;;;;12.03;10.73;;;;;;;12.52;76.43;99539.13;7356112;39;20260;31
2023/04/30 06:19:01;;;;;;;12.63;10.37;;;;;;;12.61;75.82;99532.69;7361675;39;20235;31
2023/04/30 06:24:34;;;;;;;15.27;10.80;;;;;;;12.69;75.76;99534.53;7387634;39;20340;31
2023/04/30 06:29:51;;;;;;;11.70;9.77;;;;;;;12.79;75.90;99534.34;7378177;39;20244;31
2023/04/30 06:35:26;;;;;;;12.43;11.07;;;;;;;12.86;75.26;99541.59;7347866;39;20262;31
2023/04/30 06:40:59;;;;;;;11.50;10.00;;;;;;;12.86;75.29;99538.03;7383838;39;20247;31
2023/04/30 06:46:16;;;;;;;11.40;10.30;;;;;;;12.90;75.35;99539.41;7414142;39;20306;31
2023/04/30 06:51:48;;;;;;;11.77;10.10;;;;;;;13.00;74.69;99545.47;7454237;39;20356;31
2023/04/30 07:02:26;;;;;;;11.67;9.80;;;;;;;13.25;74.43;99544.37;7436819;39;20260;31
2023/04/30 07:07:58;;;;;;;12.37;10.27;;;;;;;13.38;73.89;99550.06;7356099;39;20290;31
2023/04/30 07:13:30;;;;;;;12.75;10.55;;;;;;;13.37;73.60;99559.25;7359036;39;20278;31
2023/04/30 07:19:03;;;;;;;13.55;10.70;;;;;;;13.48;74.07;99555.28;7399413;39;20421;31
2023/04/30 07:29:24;;;;;;;11.33;9.27;;;;;;;13.91;73.42;99548.44;7438874;39;20274;31
2023/04/30 07:40:00;;;;;;;11.70;9.10;;;;;;;14.34;71.36;99545.09;7465036;38;21570;31
2023/04/30 07:45:17;;;;;;;9.33;8.40;;;;;;;14.54;71.71;99531.03;7438510;39;20353;31
2023/04/30 07:55:51;;;;;;;12.38;8.63;;;;;;;14.95;69.92;99526.91;7463526;39;20266;31
2023/04/30 08:01:09;;;;;;;9.33;8.30;;;;;;;15.25;69.28;99525.00;7423355;39;20265;31
2023/04/30 08:06:39;;;;;;;12.33;8.53;;;;;;;15.10;69.31;99522.28;7484610;38;20242;31
2023/04/30 08:12:13;;;;;;;9.57;8.37;;;;;;;15.07;69.24;99536.25;7439153;39;20243;31
2023/04/30 08:17:45;;;;;;;10.20;9.17;;;;;;;15.42;68.32;99528.34;7376862;39;20247;31
2023/04/30 08:23:17;;;;;;;10.53;8.63;;;;;;;15.91;68.47;99532.12;7326721;39;20244;31
2023/04/30 08:28:50;;;;;;;7.90;6.60;;;;;;;16.14;63.03;99534.66;7352446;39;20358;31
2023/04/30 08:34:08;;;;;;;6.80;6.10;;;;;;;16.29;62.84;99531.88;7378469;39;20317;31
2023/04/30 08:49:48;;;;;;;5.33;4.40;;;;;;;16.98;60.17;99538.34;7479508;39;20290;31
2023/04/30 08:55:36;;;;;;;6.25;4.40;;;;;;;16.50;57.70;99529.97;7420554;39;20311;31
2023/04/30 09:06:31;;;;;;;6.17;4.37;;;;;;;15.95;58.06;99538.88;7417746;39;20259;31
2023/04/30 09:11:47;;;;;;;5.25;3.97;;;;;;;16.43;58.91;99547.28;7395791;39;20255;31
2023/04/30 09:22:36;;;;;;;4.60;4.10;;;;;;;16.10;56.47;99536.09;7417954;39;20258;31
2023/04/30 09:28:24;;;;;;;4.36;3.50;;;;;;;16.07;55.54;99537.31;7482642;38;20245;31
2023/04/30 09:33:59;;;;;;;4.63;3.40;;;;;;;16.20;56.08;99542.88;7469794;39;20242;31
2023/04/30 09:39:32;;;;;;;4.20;3.00;;;;;;;16.87;55.42;99531.56;7457144;39;20253;31
2023/04/30 09:45:04;;;;;;;3.47;2.80;;;;;;;16.52;54.02;99532.50;7253296;39;20232;31
2023/04/30 09:50:40;;;;;;;4.57;2.83;;;;;;;16.36;52.42;99549.97;7396305;39;20313;31
2023/04/30 09:56:14;;;;;;;3.65;2.85;;;;;;;16.27;54.15;99537.53;7359361;39;20368;31
2023/04/30 10:06:51;;;;;;;2.33;2.10;;;;;;;16.49;54.29;99532.91;7399315;39;20392;31
2023/04/30 10:17:29;;;;;;;2.70;2.50;;;;;;;16.24;53.03;99536.00;7507377;38;20270;31
2023/04/30 10:28:06;;;;;;;4.80;2.70;;;;;;;16.40;52.32;99523.19;7437717;39;21271;31
2023/04/30 10:33:48;;;;;;;4.23;2.47;;;;;;;16.78;52.04;99513.69;7374644;39;20252;31
2023/04/30 10:44:18;;;;;;;3.65;2.70;;;;;;;16.84;52.01;99502.00;7417986;39;21152;31
2023/04/30 10:54:56;;;;;;;4.20;2.60;;;;;;;17.15;50.96;99487.09;7432691;38;21112;31
2023/04/30 11:00:34;;;;;;;3.20;2.40;;;;;;;16.93;50.07;99498.09;7440352;39;20243;31
2023/04/30 11:05:54;;;;;;;2.70;2.43;;;;;;;16.96;50.76;99494.97;7395916;39;20259;31
2023/04/30 11:11:27;;;;;;;4.35;2.60;;;;;;;17.21;49.15;99491.72;7355249;39;20252;31
2023/04/30 11:17:11;;;;;;;4.37;2.40;;;;;;;17.29;48.54;99480.69;7369181;39;20385;31
2023/04/30 11:27:51;;;;;;;3.75;2.58;;;;;;;17.20;49.31;99479.19;7375599;39;20453;31
2023/04/30 11:33:23;;;;;;;3.73;2.50;;;;;;;17.39;49.50;99481.13;7377800;39;20304;31
2023/04/30 11:38:55;;;;;;;4.70;3.00;;;;;;;17.37;48.06;99477.78;7400579;39;20343;31
2023/04/30 11:44:38;;;;;;;3.60;2.40;;;;;;;17.45;50.37;99474.87;7354226;39;20373;31
2023/04/30 11:50:12;;;;;;;3.07;2.30;;;;;;;17.39;48.96;99475.69;7376610;39;20238;31
2023/04/30 11:55:44;;;;;;;3.40;2.50;;;;;;;17.48;50.75;99463.56;7397150;39;20256;31
2023/04/30 12:01:18;;;;;;;2.90;2.60;;;;;;;17.50;49.10;99461.47;7454178;38;20241;31
2023/04/30 12:06:53;;;;;;;3.30;2.50;;;;;;;17.37;48.20;99462.28;7475673;38;21110;31
2023/04/30 12:12:11;;;;;;;3.70;3.10;;;;;;;17.52;50.41;99473.84;7488458;38;20265;31
2023/04/30 12:17:28;;;;;;;3.70;2.90;;;;;;;17.56;50.73;99468.81;7377031;39;20413;31
2023/04/30 12:23:01;;;;;;;3.20;2.73;;;;;;;17.68;50.55;99459.06;7381521;39;20266;31
2023/04/30 12:28:33;;;;;;;3.93;2.83;;;;;;;17.90;49.53;99452.34;7380814;39;20254;31
2023/04/30 12:34:09;;;;;;;4.85;3.10;;;;;;;17.87;48.37;99447.31;7376984;39;20237;31
2023/04/30 12:39:49;;;;;;;4.45;3.00;;;;;;;18.01;49.24;99453.66;7422671;38;20328;31
2023/04/30 12:45:23;;;;;;;4.33;2.87;;;;;;;18.09;49.55;99447.13;7420001;39;20379;31
2023/04/30 12:50:55;;;;;;;3.40;2.50;;;;;;;17.96;48.88;99446.09;7401015;39;20239;31
2023/04/30 12:56:28;;;;;;;3.10;2.80;;;;;;;17.99;48.33;99432.03;7392805;39;21287;31
2023/04/30 13:02:03;;;;;;;4.35;2.70;;;;;;;18.02;49.10;99428.06;7334467;39;21210;31
2023/04/30 13:07:39;;;;;;;3.13;2.67;;;;;;;18.14;49.89;99425.53;7333428;39;20502;31
2023/04/30 13:13:14;;;;;;;4.90;3.00;;;;;;;17.99;47.86;99426.56;7335219;39;20253;31
2023/04/30 13:18:46;;;;;;;3.00;2.70;;;;;;;17.78;48.44;99429.47;7406872;39;20369;31
2023/04/30 13:24:19;;;;;;;3.77;2.77;;;;;;;17.61;47.30;99424.63;7399343;39;20313;31
2023/04/30 13:29:52;;;;;;;4.03;2.70;;;;;;;17.54;49.19;99419.13;7366333;39;20281;31
2023/04/30 13:35:28;;;;;;;5.75;3.05;;;;;;;17.59;48.87;99419.41;7440145;39;20236;31
2023/04/30 13:40:46;;;;;;;5.20;2.85;;;;;;;17.70;49.14;99404.31;7408814;39;20381;31
2023/04/30 13:46:17;;;;;;;3.77;2.63;;;;;;;17.63;48.66;99401.56;7490337;38;20241;31
2023/04/30 13:51:52;;;;;;;3.10;2.63;;;;;;;17.78;49.20;99394.03;7465818;39;20450;31
2023/04/30 13:57:31;;;;;;;3.83;2.50;;;;;;;18.03;46.89;99384.19;7486436;38;21066;31
2023/04/30 14:03:01;;;;;;;4.80;2.55;;;;;;;18.20;47.01;99375.59;7418464;39;20270;31
2023/04/30 14:08:36;;;;;;;4.00;2.90;;;;;;;18.17;47.46;99371.38;7419427;39;20237;31
2023/04/30 14:13:54;;;;;;;3.03;2.60;;;;;;;18.10;47.58;99369.72;7462394;39;21350;31
2023/04/30 14:19:26;;;;;;;2.83;2.50;;;;;;;17.99;45.72;99366.56;7420037;39;20242;31
2023/04/30 14:24:58;;;;;;;2.93;2.47;;;;;;;18.02;47.32;99362.59;7418611;39;20374;31
2023/04/30 14:30:30;;;;;;;2.70;2.50;;;;;;;18.12;48.35;99353.97;7422091;39;20238;31
2023/04/30 14:36:01;;;;;;;4.45;2.55;;;;;;;18.43;46.06;99354.97;7416676;39;20349;31
2023/04/30 14:41:21;;;;;;;4.53;2.80;;;;;;;18.49;46.50;99353.28;7418610;39;20353;31
2023/04/30 14:46:54;;;;;;;2.40;2.20;;;;;;;18.53;46.13;99345.53;7464813;39;20358;31
2023/04/30 14:52:27;;;;;;;3.10;2.20;;;;;;;18.58;46.12;99351.19;7459468;39;20268;31
2023/04/30 14:57:47;;;;;;;3.90;2.40;;;;;;;18.83;46.29;99338.50;7460968;38;20237;31
2023/04/30 15:03:08;;;;;;;3.75;2.20;;;;;;;18.88;46.07;99325.03;7488414;39;21954;31
2023/04/30 15:08:41;;;;;;;2.55;2.35;;;;;;;18.82;45.31;99325.91;7439134;39;20362;31
2023/04/30 15:13:59;;;;;;;3.83;2.80;;;;;;;18.84;45.87;99327.34;7423557;39;20349;31
2023/04/30 15:19:30;;;;;;;2.87;2.50;;;;;;;18.68;45.96;99316.09;7464967;39;20317;31
2023/04/30 15:25:06;;;;;;;3.60;2.47;;;;;;;18.58;46.71;99315.69;7452017;39;21255;31
2023/04/30 15:30:38;;;;;;;3.50;3.00;;;;;;;18.55;46.43;99310.69;7461070;39;20246;31
2023/04/30 15:35:56;;;;;;;2.87;2.57;;;;;;;18.40;46.42;99310.88;7463797;39;20356;31
2023/04/30 15:41:26;;;;;;;4.20;2.40;;;;;;;18.37;46.69;99300.41;7444551;39;20238;31
2023/04/30 15:46:58;;;;;;;3.66;2.74;;;;;;;18.38;46.47;99297.47;7422546;39;20250;31
2023/04/30 15:52:16;;;;;;;6.47;3.60;;;;;;;18.32;47.30;99297.47;7438958;39;20328;31
2023/04/30 15:57:48;;;;;;;3.13;2.27;;;;;;;18.32;47.20;99294.75;7396697;39;20286;31
2023/04/30 16:03:20;;;;;;;3.17;2.80;;;;;;;18.36;48.43;99287.81;7334860;39;20248;31
2023/04/30 16:08:55;;;;;;;2.83;2.27;;;;;;;18.35;48.34;99280.66;7339208;39;20338;31
2023/04/30 16:19:32;;;;;;;2.70;2.50;;;;;;;18.22;48.06;99270.63;7398487;39;20415;31
2023/04/30 16:25:08;;;;;;;4.55;2.30;;;;;;;18.19;47.93;99262.88;7216695;39;20264;31
2023/04/30 16:30:42;;;;;;;4.40;2.40;;;;;;;18.01;46.68;99255.38;7489817;38;20257;31
2023/04/30 16:36:15;;;;;;;4.03;2.37;;;;;;;17.92;47.95;99256.63;7418586;39;20262;31
2023/04/30 16:41:47;;;;;;;4.10;2.50;;;;;;;17.86;47.47;99253.91;7419356;39;20268;31
2023/04/30 16:52:28;;;;;;;2.53;2.20;;;;;;;17.96;48.96;99244.25;7455348;38;20332;31
2023/04/30 17:02:52;;;;;;;3.13;2.50;;;;;;;17.90;48.65;99245.09;7512308;38;20388;31
2023/04/30 17:08:25;;;;;;;4.10;2.20;;;;;;;17.85;47.97;99241.34;7421254;39;21193;31
2023/04/30 17:13:42;;;;;;;2.65;2.20;;;;;;;17.85;48.49;99244.91;7396323;39;20248;31
2023/04/30 17:18:59;;;;;;;3.13;2.23;;;;;;;17.82;49.63;99237.13;7397109;39;20341;31
2023/04/30 17:24:32;;;;;;;4.45;2.40;;;;;;;17.81;49.21;99240.94;7389174;39;20248;31
2023/04/30 17:29:49;;;;;;;2.27;2.07;;;;;;;17.74;49.63;99240.09;7419182;39;20459;31
2023/04/30 17:35:21;;;;;;;3.75;2.15;;;;;;;17.66;50.03;99237.59;7395838;39;20243;31
2023/04/30 17:40:56;;;;;;;2.73;2.10;;;;;;;17.61;49.68;99239.25;7388476;39;20345;31
2023/04/30 17:46:12;;;;;;;2.30;2.10;;;;;;;17.56;50.37;99242.59;7409140;39;20332;31
2023/04/30 17:51:44;;;;;;;4.37;2.60;;;;;;;17.48;50.90;99242.78;7376448;39;20244;31
2023/04/30 17:57:20;;;;;;;3.13;2.30;;;;;;;17.42;50.70;99246.37;7341163;39;22068;31
2023/04/30 18:07:56;;;;;;;3.40;2.40;;;;;;;17.37;51.70;99254.34;7391417;39;21219;31
2023/04/30 18:13:32;;;;;;;2.90;2.10;;;;;;;17.21;51.62;99254.72;7461945;38;20253;31
2023/04/30 18:19:07;;;;;;;4.25;2.30;;;;;;;17.06;54.88;99254.94;7418085;39;20473;31
2023/04/30 18:24:26;;;;;;;3.92;2.46;;;;;;;16.88;54.71;99252.78;7440908;39;20390;31
2023/04/30 18:29:58;;;;;;;3.15;2.50;;;;;;;16.74;55.10;99251.06;7419068;39;20241;31
2023/04/30 18:35:15;;;;;;;3.27;2.57;;;;;;;16.62;56.27;99250.84;7397216;39;20477;31
2023/04/30 18:40:46;;;;;;;4.67;2.60;;;;;;;16.48;56.42;99253.66;7382315;39;20270;31
2023/04/30 18:46:19;;;;;;;4.10;2.70;;;;;;;16.28;56.39;99242.69;7405616;39;20247;31
2023/04/30 18:51:53;;;;;;;2.53;2.33;;;;;;;16.18;57.26;99242.22;7403853;39;20282;31
2023/04/30 18:57:11;;;;;;;4.60;2.67;;;;;;;16.03;57.93;99255.94;7382570;39;20246;31
2023/04/30 19:02:42;;;;;;;2.70;2.50;;;;;;;15.91;58.52;99252.13;7417377;39;20248;31
2023/04/30 19:07:59;;;;;;;3.37;2.60;;;;;;;15.81;58.50;99259.78;7397836;39;20235;31
2023/04/30 19:13:17;;;;;;;4.73;2.93;;;;;;;15.75;58.50;99260.59;7412819;39;20339;31
2023/04/30 19:18:48;;;;;;;3.53;2.80;;;;;;;15.62;57.98;99263.22;7377112;39;20236;31
2023/04/30 19:24:05;;;;;;;4.73;2.87;;;;;;;15.49;59.48;99254.91;7315533;39;20440;31
2023/04/30 19:29:24;;;;;;;4.43;3.33;;;;;;;15.33;59.44;99256.03;7376372;39;20433;31
2023/04/30 19:34:57;;;;;;;4.50;3.50;;;;;;;15.15;60.62;99266.50;7376889;39;21573;31
2023/04/30 19:40:14;;;;;;;3.95;3.35;;;;;;;15.09;60.01;99265.44;7420664;39;20271;31
2023/04/30 19:45:34;;;;;;;3.85;3.40;;;;;;;15.03;60.24;99259.91;7440226;39;20329;31
2023/04/30 19:51:10;;;;;;;13.27;9.80;;;;;;;14.99;61.14;99258.62;7460467;39;20251;31
2023/04/30 19:56:42;;;;;;;30.10;22.97;;;;;;;14.88;61.71;99254.53;7438720;39;20365;31
2023/04/30 20:01:59;;;;;;;16.87;11.73;;;;;;;14.76;61.18;99266.94;7422439;39;20251;31
2023/04/30 20:07:35;;;;;;;20.80;15.45;;;;;;;14.61;62.12;99260.72;7447287;39;20246;31
2023/04/30 20:13:10;;;;;;;23.00;16.00;;;;;;;14.45;62.75;99269.91;7400218;39;20427;31
2023/04/30 20:18:27;;;;;;;7.87;5.00;;;;;;;14.43;62.56;99258.41;7448811;39;20238;31
2023/04/30 20:24:03;;;;;;;4.17;3.60;;;;;;;14.46;62.88;99254.47;7462581;39;20234;31
2023/04/30 20:29:22;;;;;;;6.20;5.07;;;;;;;14.38;62.73;99256.28;7458777;38;20324;31
2023/04/30 20:34:38;;;;;;;7.75;5.35;;;;;;;14.34;62.93;99256.81;7490569;38;21688;31
2023/04/30 20:40:12;;;;;;;4.65;3.55;;;;;;;14.30;62.89;99255.50;7487098;38;21998;31
2023/04/30 20:45:46;;;;;;;5.20;4.00;;;;;;;14.33;62.74;99255.13;7490273;38;20401;31
2023/04/30 20:56:23;;;;;;;12.35;9.30;;;;;;;13.98;63.80;99251.31;7417531;39;21188;31
2023/04/30 21:01:44;;;;;;;7.85;4.60;;;;;;;13.90;64.02;99256.81;7418035;39;20336;31
2023/04/30 21:12:24;;;;;;;4.30;3.90;;;;;;;13.75;64.27;99247.84;7507040;38;20327;31
2023/04/30 21:17:41;;;;;;;5.17;3.90;;;;;;;13.69;64.17;99240.47;7425584;39;20273;31
2023/04/30 21:28:20;;;;;;;4.80;3.70;;;;;;;13.51;65.33;99228.09;7442900;39;21304;31
2023/04/30 21:33:52;;;;;;;4.87;3.50;;;;;;;13.44;65.21;99232.56;7408089;39;20262;31
2023/04/30 21:44:27;;;;;;;4.30;3.10;;;;;;;13.41;65.22;99232.09;7511721;38;20257;31
2023/04/30 21:55:03;;;;;;;3.90;3.50;;;;;;;13.15;66.08;99215.44;7461235;39;21424;31
2023/04/30 22:00:37;;;;;;;3.40;3.10;;;;;;;13.14;66.37;99211.03;7404647;39;20354;31
2023/04/30 22:05:57;;;;;;;4.33;3.47;;;;;;;13.11;66.23;99204.12;7407187;39;20253;31
2023/04/30 22:11:28;;;;;;;4.35;3.30;;;;;;;13.16;65.28;99203.59;7418873;39;20239;31
2023/04/30 22:17:02;;;;;;;3.90;3.20;;;;;;;13.24;65.06;99198.94;7407986;39;20444;31
2023/04/30 22:22:20;;;;;;;5.53;3.40;;;;;;;13.38;64.17;99186.47;7437459;39;20266;31
2023/04/30 22:27:52;;;;;;;4.30;3.40;;;;;;;13.39;63.81;99180.84;7398666;39;20246;31
2023/04/30 22:33:26;;;;;;;5.97;3.40;;;;;;;13.40;63.79;99177.13;7379706;39;20331;31
2023/04/30 22:38:44;;;;;;;3.80;2.93;;;;;;;13.41;63.34;99172.53;7329976;39;20244;31
2023/04/30 22:44:19;;;;;;;3.90;3.30;;;;;;;13.33;63.48;99168.06;7317014;39;20252;31
2023/04/30 22:49:55;;;;;;;5.73;3.20;;;;;;;13.21;64.41;99166.81;7325759;39;20259;31
2023/04/30 22:55:28;;;;;;;3.30;3.00;;;;;;;13.17;64.25;99161.94;7394855;39;20348;31
2023/04/30 23:00:45;;;;;;;4.83;3.20;;;;;;;13.17;63.73;99165.50;7419464;39;20565;31
2023/04/30 23:06:15;;;;;;;3.20;2.90;;;;;;;13.13;64.53;99164.19;7420851;39;20266;31
2023/04/30 23:11:33;;;;;;;4.83;3.20;;;;;;;13.18;63.67;99160.94;7420097;39;20258;31
2023/04/30 23:17:05;;;;;;;3.20;2.90;;;;;;;13.26;63.85;99160.84;7203050;39;20221;31
2023/04/30 23:27:41;;;;;;;4.27;3.10;;;;;;;13.34;63.50;99158.88;7402569;39;21120;31
2023/04/30 23:38:17;;;;;;;5.72;3.05;;;;;;;13.28;62.79;99145.28;7471514;38;20257;31
2023/04/30 23:43:52;;;;;;;3.60;3.10;;;;;;;13.31;62.66;99145.72;7486802;38;21693;31
2023/04/30 23:49:09;;;;;;;4.20;3.03;;;;;;;13.22;63.36;99136.03;7418676;39;20243;31
2023/04/30 23:54:42;;;;;;;3.77;3.00;;;;;;;13.15;63.45;99132.37;7397234;39;20247;31
